createdAt,value
2022-08-15T00:00:20.850Z,0.0
2022-08-15T00:02:33.224Z,0.0
2022-08-15T00:04:33.462Z,0.0
2022-08-15T00:06:37.855Z,0.0
2022-08-15T00:08:50.028Z,0.0
2022-08-15T00:11:02.271Z,0.0
2022-08-15T00:11:22.969Z,0.0
2022-08-15T00:12:33.889Z,0.0
2022-08-15T00:14:19.146Z,0.0
2022-08-15T00:16:19.088Z,0.0
2022-08-15T00:18:21.120Z,0.0
2022-08-15T00:20:20.549Z,0.0
2022-08-15T00:22:17.881Z,0.0
2022-08-15T00:24:20.962Z,0.0
2022-08-15T00:26:28.832Z,0.0
2022-08-15T00:28:19.376Z,0.0
2022-08-15T00:30:22.952Z,0.0
2022-08-15T00:33:02.086Z,0.0
2022-08-15T00:33:27.254Z,0.0
2022-08-15T00:34:39.856Z,0.0
2022-08-15T00:36:52.507Z,0.0
2022-08-15T00:38:27.910Z,0.0
2022-08-15T00:40:18.429Z,0.0
2022-08-15T00:42:17.715Z,0.0
2022-08-15T00:44:17.921Z,0.0
2022-08-15T00:46:21.487Z,0.0
2022-08-15T00:48:17.691Z,0.0
2022-08-15T00:50:34.654Z,0.0
2022-08-15T00:52:27.025Z,0.0
2022-08-15T00:54:56.616Z,0.0
2022-08-15T00:56:30.227Z,0.0
2022-08-15T00:58:33.614Z,0.0
2022-08-15T01:00:33.507Z,0.0
2022-08-15T01:02:22.915Z,0.0
2022-08-15T01:04:19.239Z,0.0
2022-08-15T01:06:17.761Z,0.0
2022-08-15T01:08:18.945Z,0.0
2022-08-15T01:10:20.010Z,0.0
2022-08-15T01:12:21.069Z,0.0
2022-08-15T01:14:56.648Z,0.0
2022-08-15T01:16:17.930Z,0.0
2022-08-15T01:18:22.625Z,0.0
2022-08-15T01:20:24.678Z,0.0
2022-08-15T01:22:17.759Z,0.0
2022-08-15T01:24:17.829Z,0.0
2022-08-15T01:26:41.994Z,0.0
2022-08-15T01:28:17.783Z,0.0
2022-08-15T01:31:01.483Z,0.0
2022-08-15T01:32:17.797Z,0.0
2022-08-15T01:34:18.209Z,0.0
2022-08-15T01:36:31.856Z,0.0
2022-08-15T01:38:38.023Z,0.0
2022-08-15T01:40:54.001Z,0.0
2022-08-15T01:42:17.902Z,0.0
2022-08-15T01:44:31.886Z,0.0
2022-08-15T01:46:17.865Z,0.0
2022-08-15T01:48:21.176Z,0.0
2022-08-15T01:50:29.474Z,0.0
2022-08-15T01:52:59.248Z,0.0
2022-08-15T01:54:39.830Z,0.0
2022-08-15T01:56:32.146Z,0.0
2022-08-15T01:58:22.206Z,0.0
2022-08-15T02:00:18.533Z,0.0
2022-08-15T02:02:42.743Z,0.0
2022-08-15T02:04:17.786Z,0.0
2022-08-15T02:06:17.812Z,0.0
2022-08-15T02:08:32.563Z,0.0
2022-08-15T02:10:21.264Z,1.6
2022-08-15T02:12:19.528Z,1.6
2022-08-15T02:14:37.576Z,0.0
2022-08-15T02:16:19.844Z,3.2
2022-08-15T02:18:19.877Z,3.2
2022-08-15T02:20:23.310Z,3.2
2022-08-15T02:22:25.832Z,1.6
2022-08-15T02:24:20.692Z,1.6
2022-08-15T02:26:26.114Z,0.0
2022-08-15T02:28:34.600Z,1.6
2022-08-15T02:30:17.845Z,1.6
2022-08-15T02:32:17.900Z,1.6
2022-08-15T02:34:17.797Z,1.6
2022-08-15T02:36:31.343Z,1.6
2022-08-15T02:38:19.352Z,1.6
2022-08-15T02:40:45.780Z,0.0
2022-08-15T02:42:17.795Z,0.0
2022-08-15T02:44:18.977Z,0.0
2022-08-15T02:46:29.622Z,0.0
2022-08-15T02:48:27.784Z,0.0
2022-08-15T02:50:17.840Z,0.0
2022-08-15T02:52:20.218Z,0.0
2022-08-15T02:54:36.550Z,0.0
2022-08-15T02:56:17.817Z,0.0
2022-08-15T02:58:29.887Z,0.0
2022-08-15T03:00:19.575Z,3.2
2022-08-15T03:02:29.398Z,3.2
2022-08-15T03:04:28.761Z,0.0
2022-08-15T03:06:31.542Z,1.6
2022-08-15T03:08:17.842Z,1.6
2022-08-15T03:10:29.248Z,0.0
2022-08-15T03:12:21.633Z,0.0
2022-08-15T03:14:33.300Z,0.0
2022-08-15T03:16:21.677Z,0.0
2022-08-15T03:18:31.138Z,0.0
2022-08-15T03:20:17.863Z,1.6
2022-08-15T03:22:41.661Z,1.6
2022-08-15T03:24:18.327Z,1.6
2022-08-15T03:26:25.904Z,1.6
2022-08-15T03:28:28.017Z,1.6
2022-08-15T03:30:19.838Z,1.6
2022-08-15T03:32:32.559Z,0.0
2022-08-15T03:34:18.257Z,0.0
2022-08-15T03:36:20.160Z,0.0
2022-08-15T03:38:51.936Z,0.0
2022-08-15T03:40:18.675Z,0.0
2022-08-15T03:42:18.860Z,0.0
2022-08-15T03:44:25.410Z,0.0
2022-08-15T03:46:19.081Z,1.6
2022-08-15T03:48:21.118Z,1.6
2022-08-15T03:50:22.657Z,1.6
2022-08-15T03:52:31.815Z,1.6
2022-08-15T03:54:25.818Z,1.6
2022-08-15T03:56:18.266Z,1.6
2022-08-15T03:58:32.376Z,0.0
2022-08-15T04:00:18.341Z,0.0
2022-08-15T04:02:30.804Z,0.0
2022-08-15T04:04:19.222Z,0.0
2022-08-15T04:06:17.866Z,0.0
2022-08-15T04:09:05.193Z,0.0
2022-08-15T04:10:36.223Z,0.0
2022-08-15T04:12:24.868Z,0.0
2022-08-15T04:14:33.635Z,0.0
2022-08-15T04:17:04.032Z,0.0
2022-08-15T04:18:44.252Z,0.0
2022-08-15T04:20:30.871Z,0.0
2022-08-15T04:22:28.411Z,0.0
2022-08-15T04:24:25.510Z,0.0
2022-08-15T04:26:21.552Z,0.0
2022-08-15T04:28:28.980Z,0.0
2022-08-15T04:30:17.910Z,0.0
2022-08-15T04:32:28.823Z,0.0
2022-08-15T04:34:47.819Z,0.0
2022-08-15T04:36:18.755Z,0.0
2022-08-15T04:38:17.899Z,0.0
2022-08-15T04:41:17.531Z,0.0
2022-08-15T04:41:35.507Z,0.0
2022-08-15T04:42:19.021Z,0.0
2022-08-15T04:44:18.700Z,0.0
2022-08-15T04:46:22.844Z,0.0
2022-08-15T04:48:19.868Z,0.0
2022-08-15T04:50:18.950Z,1.6
2022-08-15T04:52:17.972Z,1.6
2022-08-15T04:54:17.918Z,1.6
2022-08-15T04:56:47.641Z,0.0
2022-08-15T04:58:43.248Z,0.0
2022-08-15T05:00:17.949Z,0.0
2022-08-15T05:02:55.066Z,0.0
2022-08-15T05:04:25.825Z,0.0
2022-08-15T05:06:29.158Z,1.6
2022-08-15T05:08:17.940Z,1.6
2022-08-15T05:10:18.051Z,1.6
2022-08-15T05:12:17.939Z,1.6
2022-08-15T05:14:36.779Z,1.6
2022-08-15T05:16:17.955Z,1.6
2022-08-15T05:18:17.959Z,3.2
2022-08-15T05:20:17.937Z,4.8
2022-08-15T05:22:17.965Z,4.8
2022-08-15T05:24:29.050Z,4.8
2022-08-15T05:26:53.989Z,4.8
2022-08-15T05:28:30.256Z,4.8
2022-08-15T05:30:18.553Z,4.8
2022-08-15T05:32:18.467Z,4.8
2022-08-15T05:34:37.017Z,4.8
2022-08-15T05:36:27.535Z,4.8
2022-08-15T05:38:30.305Z,3.2
2022-08-15T05:40:18.000Z,4.8
2022-08-15T05:42:30.656Z,4.8
2022-08-15T05:44:38.841Z,6.4
2022-08-15T05:46:19.885Z,9.7
2022-08-15T05:48:20.657Z,9.7
2022-08-15T05:50:19.225Z,9.7
2022-08-15T05:52:19.661Z,6.4
2022-08-15T05:54:19.577Z,6.4
2022-08-15T05:56:20.612Z,6.4
2022-08-15T05:58:43.216Z,6.4
2022-08-15T06:00:17.994Z,4.8
2022-08-15T06:02:37.561Z,4.8
2022-08-15T06:04:29.268Z,4.8
2022-08-15T06:06:25.540Z,4.8
2022-08-15T06:08:50.048Z,4.8
2022-08-15T06:10:35.424Z,4.8
2022-08-15T06:12:24.780Z,4.8
2022-08-15T06:14:17.998Z,4.8
2022-08-15T06:16:46.812Z,4.8
2022-08-15T06:18:18.030Z,6.4
2022-08-15T06:20:29.962Z,9.7
2022-08-15T06:22:17.994Z,9.7
2022-08-15T06:24:26.156Z,9.7
2022-08-15T06:26:18.735Z,6.4
2022-08-15T06:28:51.133Z,8.0
2022-08-15T06:30:18.021Z,9.7
2022-08-15T06:32:23.072Z,9.7
2022-08-15T06:34:52.246Z,6.4
2022-08-15T06:36:18.042Z,9.7
2022-08-15T06:38:37.874Z,9.7
2022-08-15T06:40:28.220Z,6.4
2022-08-15T06:42:18.125Z,6.4
2022-08-15T06:44:21.838Z,4.8
2022-08-15T06:46:46.924Z,4.8
2022-08-15T06:48:55.612Z,6.4
2022-08-15T06:50:20.202Z,9.7
2022-08-15T06:52:21.773Z,9.7
2022-08-15T06:54:35.179Z,6.4
2022-08-15T06:56:18.800Z,6.4
2022-08-15T06:58:54.461Z,3.2
2022-08-15T07:00:34.178Z,4.8
2022-08-15T07:02:20.991Z,6.4
2022-08-15T07:04:18.117Z,6.4
2022-08-15T07:06:18.087Z,6.4
2022-08-15T07:08:18.106Z,6.4
2022-08-15T07:10:18.100Z,6.4
2022-08-15T07:12:35.804Z,6.4
2022-08-15T07:14:21.457Z,6.4
2022-08-15T07:16:19.545Z,6.4
2022-08-15T07:18:18.138Z,4.8
2022-08-15T07:20:37.871Z,6.4
2022-08-15T07:22:18.114Z,8.0
2022-08-15T07:24:34.399Z,8.0
2022-08-15T07:26:18.131Z,4.8
2022-08-15T07:28:18.949Z,4.8
2022-08-15T07:30:18.107Z,4.8
2022-08-15T07:32:33.333Z,4.8
2022-08-15T07:34:20.216Z,6.4
2022-08-15T07:36:30.654Z,6.4
2022-08-15T07:38:25.176Z,8.0
2022-08-15T07:40:18.217Z,8.0
2022-08-15T07:42:29.121Z,8.0
2022-08-15T07:44:21.202Z,6.4
2022-08-15T07:46:22.372Z,6.4
2022-08-15T07:48:19.985Z,9.7
2022-08-15T07:50:20.622Z,9.7
2022-08-15T07:52:53.514Z,9.7
2022-08-15T07:54:33.723Z,8.0
2022-08-15T07:56:38.056Z,8.0
2022-08-15T07:58:24.154Z,8.0
2022-08-15T08:00:44.844Z,9.7
2022-08-15T08:02:30.120Z,9.7
2022-08-15T08:05:47.575Z,9.7
2022-08-15T08:06:33.846Z,6.4
2022-08-15T08:08:44.636Z,9.7
2022-08-15T08:10:24.559Z,9.7
2022-08-15T08:12:30.200Z,9.7
2022-08-15T08:14:41.110Z,6.4
2022-08-15T08:16:20.741Z,6.4
2022-08-15T08:18:26.728Z,4.8
2022-08-15T08:20:21.503Z,3.2
2022-08-15T08:22:21.756Z,6.4
2022-08-15T08:24:18.207Z,6.4
2022-08-15T08:26:21.373Z,6.4
2022-08-15T08:28:18.152Z,6.4
2022-08-15T08:30:43.817Z,6.4
2022-08-15T08:32:28.881Z,6.4
2022-08-15T08:34:38.898Z,6.4
2022-08-15T08:36:35.393Z,6.4
2022-08-15T08:39:04.136Z,6.4
2022-08-15T08:40:18.352Z,6.4
2022-08-15T08:42:20.171Z,3.2
2022-08-15T08:44:23.461Z,4.8
2022-08-15T08:46:29.168Z,8.0
2022-08-15T08:48:20.802Z,8.0
2022-08-15T08:50:31.788Z,11.3
2022-08-15T08:52:18.173Z,11.3
2022-08-15T08:54:24.325Z,11.3
2022-08-15T08:56:34.676Z,9.7
2022-08-15T08:58:35.825Z,9.7
2022-08-15T09:00:18.187Z,8.0
2022-08-15T09:02:26.223Z,9.7
2022-08-15T09:04:18.809Z,12.9
2022-08-15T09:06:26.048Z,12.9
2022-08-15T09:08:21.652Z,11.3
2022-08-15T09:10:27.396Z,8.0
2022-08-15T09:12:18.214Z,9.7
2022-08-15T09:14:32.807Z,11.3
2022-08-15T09:16:18.191Z,12.9
2022-08-15T09:18:18.197Z,12.9
2022-08-15T09:20:18.742Z,12.9
2022-08-15T09:22:18.184Z,11.3
2022-08-15T09:24:36.661Z,11.3
2022-08-15T09:26:19.618Z,6.4
2022-08-15T09:28:29.978Z,6.4
2022-08-15T09:30:33.554Z,8.0
2022-08-15T09:32:30.869Z,8.0
2022-08-15T09:34:30.663Z,9.7
2022-08-15T09:36:25.106Z,9.7
2022-08-15T09:38:26.837Z,9.7
2022-08-15T09:40:58.826Z,9.7
2022-08-15T09:42:34.336Z,9.7
2022-08-15T09:44:36.956Z,9.7
2022-08-15T09:46:35.942Z,9.7
2022-08-15T09:48:18.281Z,11.3
2022-08-15T09:50:33.493Z,11.3
2022-08-15T09:52:34.983Z,11.3
2022-08-15T09:54:29.217Z,9.7
2022-08-15T09:56:18.735Z,9.7
2022-08-15T09:58:19.396Z,6.4
2022-08-15T10:00:20.712Z,11.3
2022-08-15T10:02:36.249Z,11.3
2022-08-15T10:04:21.899Z,8.0
2022-08-15T10:06:32.528Z,6.4
2022-08-15T10:08:28.862Z,8.0
2022-08-15T10:10:18.324Z,8.0
2022-08-15T10:12:18.476Z,11.3
2022-08-15T10:14:18.487Z,11.3
2022-08-15T10:16:18.610Z,11.3
2022-08-15T10:18:18.496Z,11.3
2022-08-15T10:20:19.819Z,12.9
2022-08-15T10:22:18.244Z,12.9
2022-08-15T10:24:28.285Z,12.9
2022-08-15T10:26:33.409Z,9.7
2022-08-15T10:28:37.729Z,9.7
2022-08-15T10:30:45.469Z,9.7
2022-08-15T10:32:36.876Z,6.4
2022-08-15T10:34:18.310Z,9.7
2022-08-15T10:36:30.422Z,9.7
2022-08-15T10:38:31.198Z,11.3
2022-08-15T10:40:19.098Z,11.3
2022-08-15T10:42:22.364Z,11.3
2022-08-15T10:44:35.431Z,9.7
2022-08-15T10:46:18.547Z,11.3
2022-08-15T10:48:43.919Z,12.9
2022-08-15T10:50:23.369Z,12.9
2022-08-15T10:52:18.888Z,11.3
2022-08-15T10:54:19.137Z,11.3
2022-08-15T10:57:06.136Z,11.3
2022-08-15T10:58:19.991Z,11.3
2022-08-15T11:00:35.419Z,9.7
2022-08-15T11:02:37.339Z,9.7
2022-08-15T11:04:57.830Z,9.7
2022-08-15T11:06:18.419Z,12.9
2022-08-15T11:08:18.334Z,12.9
2022-08-15T11:10:21.894Z,12.9
2022-08-15T11:12:18.356Z,9.7
2022-08-15T11:14:20.710Z,6.4
2022-08-15T11:16:32.452Z,6.4
2022-08-15T11:18:22.047Z,8.0
2022-08-15T11:20:20.933Z,8.0
2022-08-15T11:22:18.374Z,8.0
2022-08-15T11:24:18.382Z,8.0
2022-08-15T11:26:23.098Z,8.0
2022-08-15T11:28:35.921Z,9.7
2022-08-15T11:30:22.115Z,11.3
2022-08-15T11:32:25.126Z,11.3
2022-08-15T11:34:23.736Z,11.3
2022-08-15T11:36:18.439Z,9.7
2022-08-15T11:38:20.739Z,9.7
2022-08-15T11:40:18.579Z,11.3
2022-08-15T11:42:18.393Z,14.5
2022-08-15T11:44:23.234Z,14.5
2022-08-15T11:46:30.802Z,14.5
2022-08-15T11:48:18.360Z,14.5
2022-08-15T11:50:18.405Z,11.3
2022-08-15T11:52:39.329Z,11.3
2022-08-15T11:54:34.333Z,6.4
2022-08-15T11:56:24.500Z,12.9
2022-08-15T11:58:18.814Z,12.9
2022-08-15T12:00:25.490Z,12.9
2022-08-15T12:02:32.299Z,6.4
2022-08-15T12:04:42.298Z,6.4
2022-08-15T12:05:42.886Z,6.4
2022-08-15T12:06:31.386Z,6.4
2022-08-15T12:10:30.405Z,11.3
2022-08-15T12:10:31.501Z,12.9
2022-08-15T12:12:18.393Z,12.9
2022-08-15T12:13:17.358Z,11.3
2022-08-15T12:13:17.473Z,11.3
2022-08-15T12:14:24.903Z,12.9
2022-08-15T12:16:29.102Z,6.4
2022-08-15T12:18:46.119Z,9.7
2022-08-15T12:20:27.256Z,9.7
2022-08-15T12:22:52.332Z,8.0
2022-08-15T12:24:18.410Z,8.0
2022-08-15T12:26:37.931Z,4.8
2022-08-15T12:28:34.401Z,3.2
2022-08-15T12:30:18.548Z,4.8
2022-08-15T12:32:36.451Z,4.8
2022-08-15T12:34:29.345Z,6.4
2022-08-15T12:37:03.116Z,6.4
2022-08-15T12:38:18.416Z,6.4
2022-08-15T12:41:00.774Z,6.4
2022-08-15T12:42:48.102Z,6.4
2022-08-15T12:44:18.447Z,6.4
2022-08-15T12:46:20.038Z,6.4
2022-08-15T12:48:26.591Z,6.4
2022-08-15T12:50:23.528Z,14.5
2022-08-15T12:52:19.786Z,14.5
2022-08-15T12:54:26.906Z,14.5
2022-08-15T12:56:43.718Z,9.7
2022-08-15T12:58:18.473Z,9.7
2022-08-15T13:00:35.559Z,8.0
2022-08-15T13:02:48.257Z,9.7
2022-08-15T13:04:54.301Z,12.9
2022-08-15T13:06:31.773Z,12.9
2022-08-15T13:08:26.801Z,12.9
2022-08-15T13:11:01.188Z,12.9
2022-08-15T13:12:18.757Z,9.7
2022-08-15T13:14:18.536Z,9.7
2022-08-15T13:17:05.662Z,8.0
2022-08-15T13:18:19.686Z,9.7
2022-08-15T13:20:18.495Z,9.7
2022-08-15T13:22:30.917Z,9.7
2022-08-15T13:24:21.143Z,9.7
2022-08-15T13:26:27.757Z,12.9
2022-08-15T13:28:18.522Z,12.9
2022-08-15T13:30:20.001Z,12.9
2022-08-15T13:32:18.493Z,11.3
2022-08-15T13:34:19.440Z,11.3
2022-08-15T13:36:29.933Z,12.9
2022-08-15T13:38:23.398Z,12.9
2022-08-15T13:40:19.910Z,9.7
2022-08-15T13:42:37.310Z,11.3
2022-08-15T13:44:30.336Z,11.3
2022-08-15T13:46:29.426Z,8.0
2022-08-15T13:48:18.522Z,6.4
2022-08-15T13:50:20.515Z,6.4
2022-08-15T13:52:45.050Z,6.4
2022-08-15T13:54:32.732Z,6.4
2022-08-15T13:56:32.065Z,8.0
2022-08-15T13:58:19.731Z,8.0
2022-08-15T14:00:43.652Z,6.4
2022-08-15T14:02:36.785Z,8.0
2022-08-15T14:04:20.401Z,8.0
2022-08-15T14:06:18.529Z,11.3
2022-08-15T14:08:28.581Z,12.9
2022-08-15T14:11:00.905Z,12.9
2022-08-15T14:12:18.746Z,16.1
2022-08-15T14:14:34.663Z,22.5
2022-08-15T14:16:58.376Z,22.5
2022-08-15T14:18:48.892Z,17.7
2022-08-15T14:20:26.366Z,17.7
2022-08-15T14:22:18.532Z,14.5
2022-08-15T14:24:33.159Z,14.5
2022-08-15T14:27:09.531Z,14.5
2022-08-15T14:28:19.636Z,14.5
2022-08-15T14:30:18.531Z,17.7
2022-08-15T14:32:48.704Z,17.7
2022-08-15T14:35:24.337Z,17.7
2022-08-15T14:37:23.883Z,17.7
2022-08-15T14:39:01.857Z,20.9
2022-08-15T14:40:20.288Z,20.9
2022-08-15T14:42:21.706Z,20.9
2022-08-15T14:44:47.456Z,17.7
2022-08-15T14:46:31.171Z,17.7
2022-08-15T14:48:31.943Z,12.9
2022-08-15T14:50:52.516Z,12.9
2022-08-15T14:52:27.002Z,19.3
2022-08-15T14:54:43.897Z,19.3
2022-08-15T14:56:18.634Z,19.3
2022-08-15T14:58:37.723Z,16.1
2022-08-15T15:00:25.099Z,14.5
2022-08-15T15:02:23.694Z,14.5
2022-08-15T15:04:20.674Z,9.7
2022-08-15T15:06:29.425Z,20.9
2022-08-15T15:08:19.384Z,24.1
2022-08-15T15:10:25.272Z,24.1
2022-08-15T15:12:18.611Z,19.3
2022-08-15T15:14:18.650Z,9.7
2022-08-15T15:16:42.029Z,8.0
2022-08-15T15:18:38.629Z,8.0
2022-08-15T15:20:21.866Z,4.8
2022-08-15T15:22:18.648Z,4.8
2022-08-15T15:24:30.592Z,3.2
2022-08-15T15:26:18.590Z,3.2
2022-08-15T15:28:35.958Z,0.0
2022-08-15T15:30:18.654Z,0.0
2022-08-15T15:32:39.295Z,0.0
2022-08-15T15:34:18.992Z,0.0
2022-08-15T15:36:29.048Z,0.0
2022-08-15T15:38:36.794Z,1.6
2022-08-15T15:40:22.914Z,1.6
2022-08-15T15:42:19.108Z,1.6
2022-08-15T15:44:19.087Z,1.6
2022-08-15T15:46:18.583Z,1.6
2022-08-15T15:48:28.445Z,1.6
2022-08-15T15:50:26.589Z,1.6
2022-08-15T15:52:19.551Z,1.6
2022-08-15T15:54:36.061Z,0.0
2022-08-15T15:56:37.668Z,3.2
2022-08-15T15:59:01.795Z,3.2
2022-08-15T16:00:28.049Z,3.2
2022-08-15T16:02:44.168Z,3.2
2022-08-15T16:04:18.948Z,3.2
2022-08-15T16:07:01.748Z,0.0
2022-08-15T16:08:32.940Z,0.0
2022-08-15T16:10:18.611Z,0.0
2022-08-15T16:13:00.679Z,0.0
2022-08-15T16:14:19.373Z,0.0
2022-08-15T16:16:19.365Z,0.0
2022-08-15T16:18:24.240Z,0.0
2022-08-15T16:20:41.282Z,0.0
2022-08-15T16:22:19.954Z,0.0
2022-08-15T16:24:18.620Z,0.0
2022-08-15T16:26:18.623Z,0.0
2022-08-15T16:28:18.717Z,1.6
2022-08-15T16:30:30.128Z,1.6
2022-08-15T16:32:20.222Z,3.2
2022-08-15T16:34:18.634Z,3.2
2022-08-15T16:36:23.139Z,4.8
2022-08-15T16:39:06.462Z,4.8
2022-08-15T16:40:24.175Z,4.8
2022-08-15T16:42:39.692Z,3.2
2022-08-15T16:44:21.708Z,3.2
2022-08-15T16:46:18.660Z,3.2
2022-08-15T16:48:18.664Z,3.2
2022-08-15T16:50:18.684Z,3.2
2022-08-15T16:52:19.518Z,1.6
2022-08-15T16:54:39.573Z,4.8
2022-08-15T16:56:30.485Z,12.9
2022-08-15T16:58:36.238Z,12.9
2022-08-15T17:00:42.699Z,12.9
2022-08-15T17:03:03.073Z,9.7
2022-08-15T17:04:20.933Z,9.7
2022-08-15T17:06:18.688Z,9.7
2022-08-15T17:08:18.708Z,11.3
2022-08-15T17:10:27.065Z,11.3
2022-08-15T17:12:24.108Z,11.3
2022-08-15T17:14:39.397Z,6.4
2022-08-15T17:16:18.686Z,6.4
2022-08-15T17:18:18.685Z,3.2
2022-08-15T17:20:21.100Z,1.6
2022-08-15T17:22:18.706Z,1.6
2022-08-15T17:24:55.405Z,3.2
2022-08-15T17:27:03.794Z,3.2
2022-08-15T17:27:38.364Z,3.2
2022-08-15T17:28:37.705Z,3.2
2022-08-15T17:30:56.406Z,3.2
2022-08-15T17:32:23.672Z,0.0
2022-08-15T17:34:37.132Z,0.0
2022-08-15T17:36:18.705Z,3.2
2022-08-15T17:38:30.475Z,3.2
2022-08-15T17:40:24.390Z,3.2
2022-08-15T17:42:19.495Z,1.6
2022-08-15T17:44:50.791Z,1.6
2022-08-15T17:46:18.719Z,1.6
2022-08-15T17:48:30.847Z,1.6
2022-08-15T17:50:47.013Z,3.2
2022-08-15T17:52:19.396Z,3.2
2022-08-15T17:54:21.625Z,1.6
2022-08-15T17:56:23.113Z,1.6
2022-08-15T17:58:21.544Z,1.6
2022-08-15T18:00:22.350Z,1.6
2022-08-15T18:02:31.794Z,1.6
2022-08-15T18:04:19.805Z,3.2
2022-08-15T18:06:18.937Z,3.2
2022-08-15T18:08:21.589Z,3.2
2022-08-15T18:10:40.883Z,0.0
2022-08-15T18:12:18.900Z,0.0
2022-08-15T18:14:26.409Z,1.6
2022-08-15T18:16:20.394Z,3.2
2022-08-15T18:18:21.207Z,3.2
2022-08-15T18:20:27.992Z,3.2
2022-08-15T18:22:22.816Z,3.2
2022-08-15T18:24:38.851Z,3.2
2022-08-15T18:26:50.369Z,0.0
2022-08-15T18:28:18.846Z,0.0
2022-08-15T18:30:18.813Z,0.0
2022-08-15T18:32:18.834Z,0.0
2022-08-15T18:34:36.901Z,0.0
2022-08-15T18:36:25.939Z,0.0
2022-08-15T18:38:18.851Z,0.0
2022-08-15T18:40:18.798Z,0.0
2022-08-15T18:42:18.818Z,0.0
2022-08-15T18:44:19.411Z,0.0
2022-08-15T18:46:20.510Z,0.0
2022-08-15T18:48:33.797Z,0.0
2022-08-15T18:50:44.841Z,0.0
2022-08-15T18:52:20.340Z,0.0
2022-08-15T18:54:47.370Z,0.0
2022-08-15T18:56:25.414Z,0.0
2022-08-15T18:58:25.589Z,0.0
2022-08-15T19:00:20.555Z,0.0
2022-08-15T19:02:23.991Z,0.0
2022-08-15T19:04:49.059Z,0.0
2022-08-15T19:06:23.506Z,0.0
2022-08-15T19:08:37.773Z,0.0
2022-08-15T19:10:19.031Z,1.6
2022-08-15T19:12:29.728Z,1.6
2022-08-15T19:14:23.455Z,1.6
2022-08-15T19:16:29.877Z,0.0
2022-08-15T19:18:35.251Z,3.2
2022-08-15T19:20:26.331Z,3.2
2022-08-15T19:22:19.337Z,3.2
2022-08-15T19:24:28.652Z,0.0
2022-08-15T19:26:25.985Z,0.0
2022-08-15T19:28:41.378Z,0.0
2022-08-15T19:30:19.951Z,0.0
2022-08-15T19:32:19.283Z,0.0
2022-08-15T19:34:18.811Z,0.0
2022-08-15T19:36:31.488Z,0.0
2022-08-15T19:38:18.895Z,0.0
2022-08-15T19:40:19.733Z,0.0
2022-08-15T19:42:18.809Z,0.0
2022-08-15T19:44:21.828Z,0.0
2022-08-15T19:46:38.288Z,0.0
2022-08-15T19:48:18.920Z,0.0
2022-08-15T19:50:20.586Z,0.0
2022-08-15T19:52:20.414Z,1.6
2022-08-15T19:55:21.775Z,1.6
2022-08-15T19:55:42.058Z,1.6
2022-08-15T19:56:29.155Z,1.6
2022-08-15T19:58:29.613Z,0.0
2022-08-15T20:00:19.885Z,0.0
2022-08-15T20:02:25.930Z,0.0
2022-08-15T20:04:38.291Z,0.0
2022-08-15T20:06:21.398Z,0.0
2022-08-15T20:08:35.555Z,0.0
2022-08-15T20:10:19.230Z,0.0
2022-08-15T20:12:20.925Z,0.0
2022-08-15T20:14:47.376Z,0.0
2022-08-15T20:16:54.453Z,0.0
2022-08-15T20:18:28.388Z,0.0
2022-08-15T20:20:28.039Z,0.0
2022-08-15T20:22:35.255Z,0.0
2022-08-15T20:24:19.810Z,0.0
2022-08-15T20:26:23.089Z,0.0
2022-08-15T20:28:35.976Z,0.0
2022-08-15T20:30:20.109Z,0.0
2022-08-15T20:32:22.542Z,0.0
2022-08-15T20:34:18.988Z,0.0
2022-08-15T20:36:19.065Z,0.0
2022-08-15T20:40:20.843Z,0.0
2022-08-15T20:42:19.680Z,0.0
2022-08-15T20:44:24.421Z,0.0
2022-08-15T20:46:18.917Z,0.0
2022-08-15T20:48:41.348Z,0.0
2022-08-15T20:50:18.970Z,0.0
2022-08-15T20:52:39.152Z,0.0
2022-08-15T20:54:33.333Z,0.0
2022-08-15T20:56:34.035Z,0.0
2022-08-15T20:58:19.298Z,0.0
2022-08-15T21:01:12.042Z,0.0
2022-08-15T21:02:29.873Z,0.0
2022-08-15T21:04:22.345Z,0.0
2022-08-15T21:06:21.118Z,0.0
2022-08-15T21:08:22.642Z,0.0
2022-08-15T21:10:18.904Z,0.0
2022-08-15T21:12:25.849Z,0.0
2022-08-15T21:15:10.450Z,0.0
2022-08-15T21:16:03.282Z,0.0
2022-08-15T21:16:32.296Z,0.0
2022-08-15T21:18:20.219Z,1.6
2022-08-15T21:20:19.246Z,1.6
2022-08-15T21:22:25.200Z,0.0
2022-08-15T21:24:18.921Z,0.0
2022-08-15T21:26:18.924Z,0.0
2022-08-15T21:28:32.565Z,0.0
2022-08-15T21:30:43.759Z,0.0
2022-08-15T21:32:32.579Z,0.0
2022-08-15T21:34:23.366Z,0.0
2022-08-15T21:36:22.250Z,0.0
2022-08-15T21:38:21.076Z,0.0
2022-08-15T21:40:31.603Z,0.0
2022-08-15T21:42:18.951Z,0.0
2022-08-15T21:44:20.408Z,0.0
2022-08-15T21:46:19.365Z,0.0
2022-08-15T21:48:35.146Z,0.0
2022-08-15T21:50:26.531Z,0.0
2022-08-15T21:52:18.954Z,0.0
2022-08-15T21:54:21.813Z,0.0
2022-08-15T21:56:25.457Z,0.0
2022-08-15T21:58:18.977Z,1.6
2022-08-15T22:00:22.368Z,3.2
2022-08-15T22:02:33.762Z,3.2
2022-08-15T22:04:18.974Z,3.2
2022-08-15T22:06:23.438Z,1.6
2022-08-15T22:08:20.650Z,0.0
2022-08-15T22:10:21.171Z,0.0
2022-08-15T22:12:21.290Z,1.6
2022-08-15T22:14:29.374Z,1.6
2022-08-15T22:16:37.969Z,1.6
2022-08-15T22:18:27.418Z,0.0
2022-08-15T22:20:32.572Z,0.0
2022-08-15T22:22:19.693Z,0.0
2022-08-15T22:24:18.965Z,1.6
2022-08-15T22:26:36.652Z,1.6
2022-08-15T22:28:35.060Z,1.6
2022-08-15T22:30:20.212Z,3.2
2022-08-15T22:32:30.453Z,3.2
2022-08-15T22:34:19.701Z,1.6
2022-08-15T22:36:18.995Z,4.8
2022-08-15T22:38:19.610Z,4.8
2022-08-15T22:40:19.735Z,4.8
2022-08-15T22:42:19.005Z,4.8
2022-08-15T22:44:29.174Z,1.6
2022-08-15T22:46:29.125Z,1.6
2022-08-15T22:48:24.277Z,1.6
2022-08-15T22:50:16.549Z,0.0
2022-08-15T22:52:19.987Z,1.6
2022-08-15T22:54:20.373Z,1.6
2022-08-15T22:56:53.258Z,1.6
2022-08-15T22:58:16.512Z,3.2
2022-08-15T23:00:16.712Z,3.2
2022-08-15T23:02:17.796Z,3.2
2022-08-15T23:04:41.270Z,3.2
2022-08-15T23:06:23.941Z,3.2
2022-08-15T23:08:19.199Z,3.2
2022-08-15T23:10:24.032Z,3.2
2022-08-15T23:12:16.509Z,1.6
2022-08-15T23:14:23.214Z,1.6
2022-08-15T23:16:33.185Z,1.6
2022-08-15T23:18:18.972Z,3.2
2022-08-15T23:20:30.054Z,3.2
2022-08-15T23:22:32.828Z,3.2
2022-08-15T23:24:21.578Z,3.2
2022-08-15T23:26:31.698Z,0.0
2022-08-15T23:28:30.039Z,1.6
2022-08-15T23:30:31.418Z,1.6
2022-08-15T23:32:19.370Z,1.6
2022-08-15T23:34:16.552Z,3.2
2022-08-15T23:36:16.555Z,3.2
2022-08-15T23:38:18.035Z,3.2
2022-08-15T23:40:16.571Z,4.8
2022-08-15T23:42:16.546Z,4.8
2022-08-15T23:44:18.088Z,4.8
2022-08-15T23:46:35.134Z,1.6
2022-08-15T23:48:28.798Z,1.6
2022-08-15T23:50:16.582Z,0.0
2022-08-15T23:52:18.057Z,0.0
2022-08-15T23:54:17.033Z,0.0
2022-08-15T23:56:35.147Z,0.0
2022-08-15T23:58:18.212Z,0.0
